createdAt,value
2017-12-13T00:00:38.712Z,8.80
2017-12-13T00:01:38.704Z,8.00
2017-12-13T00:02:38.746Z,8.50
2017-12-13T00:03:38.692Z,8.70
2017-12-13T00:04:38.680Z,8.20
2017-12-13T00:05:38.671Z,8.80
2017-12-13T00:06:38.664Z,8.00
2017-12-13T00:07:38.657Z,8.80
2017-12-13T00:08:38.649Z,8.80
2017-12-13T00:09:38.640Z,7.70
2017-12-13T00:10:38.637Z,7.50
2017-12-13T00:11:38.625Z,7.70
2017-12-13T00:12:38.621Z,7.30
2017-12-13T00:13:38.614Z,7.70
2017-12-13T00:14:38.655Z,7.80
2017-12-13T00:15:38.597Z,8.00
2017-12-13T00:16:38.590Z,8.10
2017-12-13T00:17:38.577Z,8.10
2017-12-13T00:18:38.570Z,8.10
2017-12-13T00:19:38.561Z,8.30
2017-12-13T00:20:38.654Z,8.50
2017-12-13T00:21:38.550Z,6.90
2017-12-13T00:22:38.543Z,8.10
2017-12-13T00:23:38.529Z,7.30
2017-12-13T00:24:38.522Z,7.80
2017-12-13T00:25:38.514Z,7.30
2017-12-13T00:26:38.561Z,7.40
2017-12-13T00:27:38.498Z,7.60
2017-12-13T00:28:38.491Z,8.10
2017-12-13T00:29:38.483Z,7.80
2017-12-13T00:30:38.475Z,8.20
2017-12-13T00:31:38.473Z,8.70
2017-12-13T00:32:38.468Z,9.30
2017-12-13T00:33:38.452Z,8.80
2017-12-13T00:34:38.445Z,9.70
2017-12-13T00:35:38.436Z,10.40
2017-12-13T00:36:38.430Z,10.00
2017-12-13T00:37:38.471Z,9.40
2017-12-13T00:38:38.462Z,9.80
2017-12-13T00:39:38.410Z,10.20
2017-12-13T00:40:38.403Z,10.00
2017-12-13T00:41:38.390Z,10.70
2017-12-13T00:42:38.381Z,10.80
2017-12-13T00:43:38.375Z,10.10
2017-12-13T00:44:38.471Z,10.20
2017-12-13T00:45:38.359Z,10.70
2017-12-13T00:46:38.355Z,11.40
2017-12-13T00:47:38.344Z,10.90
2017-12-13T00:48:38.335Z,11.30
2017-12-13T00:49:38.326Z,10.50
2017-12-13T00:50:38.320Z,11.00
2017-12-13T00:51:38.311Z,11.00
2017-12-13T00:52:38.305Z,11.50
2017-12-13T00:53:38.296Z,11.70
2017-12-13T00:54:38.289Z,11.10
2017-12-13T00:55:38.281Z,10.80
2017-12-13T00:56:38.274Z,10.60
2017-12-13T00:57:38.264Z,11.40
2017-12-13T00:58:38.257Z,10.60
2017-12-13T00:59:38.255Z,11.10
2017-12-13T01:00:38.242Z,10.80
2017-12-13T01:01:38.233Z,11.20
2017-12-13T01:02:38.271Z,10.60
2017-12-13T01:03:38.220Z,10.90
2017-12-13T01:04:38.216Z,10.90
2017-12-13T01:05:38.208Z,10.30
2017-12-13T01:06:38.196Z,10.50
2017-12-13T01:07:38.189Z,10.30
2017-12-13T01:08:38.185Z,10.30
2017-12-13T01:09:38.157Z,10.40
2017-12-13T01:10:38.151Z,10.60
2017-12-13T01:11:38.143Z,9.60
2017-12-13T01:12:39.335Z,9.80
2017-12-13T01:13:38.126Z,9.50
2017-12-13T01:14:38.220Z,8.90
2017-12-13T01:15:38.115Z,9.50
2017-12-13T01:16:38.105Z,9.80
2017-12-13T01:17:38.100Z,9.70
2017-12-13T01:18:38.093Z,9.50
2017-12-13T01:19:38.082Z,9.10
2017-12-13T01:20:38.077Z,8.80
2017-12-13T01:21:38.064Z,9.30
2017-12-13T01:22:38.057Z,9.10
2017-12-13T01:23:38.053Z,9.40
2017-12-13T01:24:38.042Z,9.60
2017-12-13T01:25:38.038Z,9.40
2017-12-13T01:26:38.028Z,9.20
2017-12-13T01:27:38.019Z,9.70
2017-12-13T01:28:38.017Z,9.50
2017-12-13T01:29:38.004Z,9.40
2017-12-13T01:30:37.995Z,9.90
2017-12-13T01:31:37.988Z,9.70
2017-12-13T01:32:37.982Z,9.90
2017-12-13T01:33:37.972Z,10.00
2017-12-13T01:34:37.964Z,9.80
2017-12-13T01:35:37.960Z,9.90
2017-12-13T01:36:37.949Z,10.40
2017-12-13T01:37:37.941Z,9.90
2017-12-13T01:38:37.938Z,10.50
2017-12-13T01:39:37.930Z,10.00
2017-12-13T01:40:37.926Z,11.20
2017-12-13T01:41:37.914Z,10.80
2017-12-13T01:42:37.904Z,11.00
2017-12-13T01:43:37.898Z,11.20
2017-12-13T01:44:37.892Z,10.90
2017-12-13T01:45:37.902Z,11.70
2017-12-13T01:46:37.886Z,11.30
2017-12-13T01:47:37.883Z,11.10
2017-12-13T01:48:37.880Z,10.80
2017-12-13T01:49:37.869Z,11.10
2017-12-13T01:50:37.856Z,10.30
2017-12-13T01:51:37.859Z,10.20
2017-12-13T01:52:37.849Z,10.40
2017-12-13T01:53:37.838Z,10.20
2017-12-13T01:54:37.827Z,9.90
2017-12-13T01:55:37.826Z,10.80
2017-12-13T01:56:37.814Z,11.00
2017-12-13T01:57:37.811Z,10.70
2017-12-13T01:58:37.799Z,11.30
2017-12-13T01:59:37.796Z,9.80
2017-12-13T02:00:37.782Z,10.70
2017-12-13T02:01:37.784Z,9.50
2017-12-13T02:02:37.765Z,8.20
2017-12-13T02:03:37.791Z,7.90
2017-12-13T02:04:37.759Z,8.00
2017-12-13T02:05:37.750Z,7.40
2017-12-13T02:06:37.740Z,6.80
2017-12-13T02:07:37.728Z,6.00
2017-12-13T02:08:37.828Z,5.50
2017-12-13T02:09:37.720Z,5.40
2017-12-13T02:10:37.713Z,6.20
2017-12-13T02:11:37.703Z,6.60
2017-12-13T02:12:37.698Z,6.30
2017-12-13T02:13:37.686Z,6.60
2017-12-13T02:14:37.683Z,6.50
2017-12-13T02:15:37.670Z,6.50
2017-12-13T02:16:37.668Z,6.60
2017-12-13T02:17:37.657Z,6.40
2017-12-13T02:18:37.645Z,6.30
2017-12-13T02:19:37.628Z,6.00
2017-12-13T02:20:37.634Z,5.70
2017-12-13T02:21:37.611Z,6.20
2017-12-13T02:22:37.605Z,5.80
2017-12-13T02:23:37.614Z,4.90
2017-12-13T02:24:37.590Z,5.80
2017-12-13T02:25:37.599Z,4.80
2017-12-13T02:26:37.574Z,4.80
2017-12-13T02:27:37.584Z,5.10
2017-12-13T02:28:37.577Z,4.90
2017-12-13T02:29:37.565Z,4.90
2017-12-13T02:30:37.562Z,4.80
2017-12-13T02:31:37.544Z,4.90
2017-12-13T02:32:37.519Z,5.50
2017-12-13T02:33:37.530Z,5.20
2017-12-13T02:34:37.504Z,4.70
2017-12-13T02:35:37.525Z,4.50
2017-12-13T02:36:37.493Z,4.50
2017-12-13T02:37:37.508Z,4.60
2017-12-13T02:38:37.601Z,4.30
2017-12-13T02:39:37.471Z,3.90
2017-12-13T02:40:37.487Z,4.70
2017-12-13T02:41:37.451Z,5.00
2017-12-13T02:42:37.453Z,4.10
2017-12-13T02:43:37.461Z,4.40
2017-12-13T02:44:37.438Z,4.30
2017-12-13T02:45:37.448Z,4.70
2017-12-13T02:46:37.440Z,4.40
2017-12-13T02:47:37.405Z,4.20
2017-12-13T02:48:37.416Z,4.00
2017-12-13T02:49:37.400Z,4.40
2017-12-13T02:50:37.508Z,3.80
2017-12-13T02:51:37.380Z,3.90
2017-12-13T02:52:37.392Z,3.40
2017-12-13T02:53:37.370Z,3.40
2017-12-13T02:54:37.371Z,3.70
2017-12-13T02:55:37.368Z,4.20
2017-12-13T02:56:37.343Z,3.10
2017-12-13T02:57:37.335Z,3.60
2017-12-13T02:58:37.346Z,3.60
2017-12-13T02:59:37.342Z,2.90
2017-12-13T03:00:37.309Z,3.00
2017-12-13T03:01:37.305Z,2.50
2017-12-13T03:02:37.316Z,2.90
2017-12-13T03:03:37.303Z,2.40
2017-12-13T03:04:37.306Z,2.40
2017-12-13T03:05:37.293Z,1.80
2017-12-13T03:06:37.280Z,2.00
2017-12-13T03:07:37.257Z,2.00
2017-12-13T03:08:37.258Z,2.10
2017-12-13T03:09:37.245Z,2.00
2017-12-13T03:10:37.255Z,2.10
2017-12-13T03:11:37.231Z,2.10
2017-12-13T03:12:37.217Z,1.90
2017-12-13T03:13:37.237Z,2.00
2017-12-13T03:14:37.207Z,1.80
2017-12-13T03:15:37.223Z,2.00
2017-12-13T03:16:37.211Z,2.10
2017-12-13T03:17:37.207Z,2.10
2017-12-13T03:18:37.200Z,1.90
2017-12-13T03:19:37.192Z,2.00
2017-12-13T03:20:37.167Z,1.70
2017-12-13T03:21:37.150Z,1.80
2017-12-13T03:22:37.154Z,1.70
2017-12-13T03:23:37.163Z,2.10
2017-12-13T03:24:37.156Z,1.70
2017-12-13T03:25:37.129Z,1.60
2017-12-13T03:26:37.123Z,1.90
2017-12-13T03:27:37.133Z,1.80
2017-12-13T03:28:37.122Z,1.50
2017-12-13T03:29:37.114Z,2.00
2017-12-13T03:30:37.111Z,1.70
2017-12-13T03:31:37.081Z,1.60
2017-12-13T03:32:37.092Z,1.60
2017-12-13T03:33:37.069Z,1.60
2017-12-13T03:34:37.080Z,1.30
2017-12-13T03:35:37.061Z,1.50
2017-12-13T03:36:37.066Z,1.60
2017-12-13T03:37:37.030Z,1.50
2017-12-13T03:38:37.137Z,1.40
2017-12-13T03:39:37.039Z,1.30
2017-12-13T03:40:37.036Z,1.80
2017-12-13T03:41:37.023Z,1.50
2017-12-13T03:42:37.003Z,1.40
2017-12-13T03:43:37.004Z,1.40
2017-12-13T03:44:37.001Z,1.50
2017-12-13T03:45:36.976Z,1.50
2017-12-13T03:46:36.980Z,1.50
2017-12-13T03:47:36.960Z,1.60
2017-12-13T03:48:36.954Z,1.40
2017-12-13T03:49:36.957Z,1.80
2017-12-13T03:50:37.039Z,1.20
2017-12-13T03:51:36.929Z,1.40
2017-12-13T03:52:36.941Z,1.40
2017-12-13T03:53:36.928Z,1.30
2017-12-13T03:54:36.908Z,1.40
2017-12-13T03:55:36.913Z,1.50
2017-12-13T03:56:36.905Z,1.40
2017-12-13T03:57:36.897Z,1.20
2017-12-13T03:58:36.878Z,1.40
2017-12-13T03:59:36.888Z,1.30
2017-12-13T04:00:36.882Z,1.50
2017-12-13T04:01:36.868Z,1.40
2017-12-13T04:02:36.863Z,1.60
2017-12-13T04:03:36.851Z,1.40
2017-12-13T04:04:36.843Z,1.60
2017-12-13T04:05:36.820Z,1.60
2017-12-13T04:06:36.832Z,1.50
2017-12-13T04:07:36.826Z,1.50
2017-12-13T04:08:36.913Z,1.40
2017-12-13T04:09:36.805Z,1.30
2017-12-13T04:10:36.796Z,1.50
2017-12-13T04:11:36.779Z,1.30
2017-12-13T04:12:36.767Z,1.40
2017-12-13T04:13:36.759Z,1.50
2017-12-13T04:14:36.758Z,1.40
2017-12-13T04:15:36.760Z,1.50
2017-12-13T04:16:36.758Z,1.50
2017-12-13T04:17:36.735Z,1.30
2017-12-13T04:18:36.736Z,1.40
2017-12-13T04:19:36.721Z,1.50
2017-12-13T04:20:36.712Z,1.30
2017-12-13T04:21:36.714Z,1.50
2017-12-13T04:22:36.711Z,1.50
2017-12-13T04:23:36.683Z,1.40
2017-12-13T04:24:36.697Z,1.40
2017-12-13T04:25:36.674Z,1.40
2017-12-13T04:26:36.677Z,1.30
2017-12-13T04:27:36.654Z,1.40
2017-12-13T04:28:36.667Z,1.40
2017-12-13T04:29:36.654Z,1.30
2017-12-13T04:30:36.652Z,1.60
2017-12-13T04:31:36.624Z,1.30
2017-12-13T04:32:36.737Z,1.30
2017-12-13T04:33:36.627Z,1.30
2017-12-13T04:34:36.601Z,1.30
2017-12-13T04:35:36.592Z,1.40
2017-12-13T04:36:36.592Z,1.30
2017-12-13T04:37:36.578Z,1.50
2017-12-13T04:38:36.571Z,1.50
2017-12-13T04:39:36.593Z,1.60
2017-12-13T04:40:36.573Z,1.60
2017-12-13T04:41:36.559Z,1.40
2017-12-13T04:42:36.570Z,1.70
2017-12-13T04:43:36.556Z,1.40
2017-12-13T04:44:36.549Z,1.50
2017-12-13T04:45:36.526Z,1.50
2017-12-13T04:46:36.509Z,1.60
2017-12-13T04:47:36.520Z,1.40
2017-12-13T04:48:36.522Z,1.50
2017-12-13T04:49:36.505Z,1.60
2017-12-13T04:50:36.488Z,1.40
2017-12-13T04:51:36.478Z,1.20
2017-12-13T04:52:36.483Z,1.30
2017-12-13T04:53:36.481Z,1.40
2017-12-13T04:54:36.449Z,1.50
2017-12-13T04:55:36.447Z,1.50
2017-12-13T04:56:36.558Z,1.50
2017-12-13T04:57:36.424Z,1.60
2017-12-13T04:58:36.436Z,1.40
2017-12-13T04:59:36.420Z,1.40
2017-12-13T05:00:37.254Z,1.20
2017-12-13T05:01:36.418Z,1.30
2017-12-13T05:02:36.511Z,1.40
2017-12-13T05:03:36.404Z,1.60
2017-12-13T05:04:36.374Z,1.60
2017-12-13T05:05:36.366Z,1.40
2017-12-13T05:06:36.363Z,1.60
2017-12-13T05:07:36.357Z,1.50
2017-12-13T05:08:36.444Z,1.50
2017-12-13T05:09:36.339Z,1.50
2017-12-13T05:10:36.355Z,1.50
2017-12-13T05:11:36.338Z,1.50
2017-12-13T05:12:36.333Z,1.50
2017-12-13T05:13:36.323Z,1.50
2017-12-13T05:14:36.316Z,1.70
2017-12-13T05:15:36.305Z,1.60
2017-12-13T05:16:36.307Z,1.50
2017-12-13T05:17:36.290Z,1.70
2017-12-13T05:18:36.285Z,1.40
2017-12-13T05:19:36.283Z,1.30
2017-12-13T05:20:36.280Z,1.70
2017-12-13T05:21:36.263Z,1.60
2017-12-13T05:22:36.262Z,1.70
2017-12-13T05:23:36.255Z,1.50
2017-12-13T05:24:36.244Z,1.80
2017-12-13T05:25:36.238Z,1.60
2017-12-13T05:26:36.326Z,1.40
2017-12-13T05:27:36.228Z,1.60
2017-12-13T05:28:36.208Z,1.50
2017-12-13T05:29:36.203Z,1.80
2017-12-13T05:30:36.196Z,1.50
2017-12-13T05:31:36.199Z,1.70
2017-12-13T05:32:36.182Z,1.60
2017-12-13T05:33:36.179Z,1.40
2017-12-13T05:34:36.172Z,1.90
2017-12-13T05:35:36.169Z,2.10
2017-12-13T05:36:36.149Z,2.00
2017-12-13T05:37:36.151Z,1.70
2017-12-13T05:38:36.139Z,1.70
2017-12-13T05:39:36.130Z,1.50
2017-12-13T05:40:36.124Z,1.80
2017-12-13T05:41:36.120Z,1.80
2017-12-13T05:42:36.109Z,1.60
2017-12-13T05:43:36.097Z,1.60
2017-12-13T05:44:36.089Z,1.60
2017-12-13T05:45:36.087Z,1.90
2017-12-13T05:46:36.078Z,1.60
2017-12-13T05:47:36.072Z,1.60
2017-12-13T05:48:36.062Z,1.60
2017-12-13T05:49:36.055Z,1.60
2017-12-13T05:50:36.047Z,1.80
2017-12-13T05:51:36.044Z,1.90
2017-12-13T05:52:36.039Z,1.80
2017-12-13T05:53:36.025Z,2.20
2017-12-13T05:54:36.023Z,1.90
2017-12-13T05:55:36.011Z,2.10
2017-12-13T05:56:36.009Z,2.10
2017-12-13T05:57:35.996Z,1.90
2017-12-13T05:58:35.994Z,2.00
2017-12-13T05:59:35.987Z,1.90
2017-12-13T06:00:35.975Z,1.90
2017-12-13T06:01:35.966Z,2.00
2017-12-13T06:02:35.959Z,2.00
2017-12-13T06:03:35.952Z,1.90
2017-12-13T06:04:35.944Z,2.20
2017-12-13T06:05:35.936Z,2.20
2017-12-13T06:06:35.928Z,2.30
2017-12-13T06:07:35.922Z,2.20
2017-12-13T06:08:36.015Z,1.90
2017-12-13T06:09:35.905Z,1.80
2017-12-13T06:10:35.898Z,1.70
2017-12-13T06:11:35.896Z,2.40
2017-12-13T06:12:35.889Z,1.90
2017-12-13T06:13:35.875Z,2.00
2017-12-13T06:14:35.873Z,1.90
2017-12-13T06:15:35.861Z,1.90
2017-12-13T06:16:35.854Z,2.20
2017-12-13T06:17:35.845Z,2.00
2017-12-13T06:18:35.843Z,1.90
2017-12-13T06:19:35.830Z,1.90
2017-12-13T06:20:35.923Z,2.00
2017-12-13T06:21:35.806Z,1.90
2017-12-13T06:22:35.790Z,1.90
2017-12-13T06:23:35.782Z,1.80
2017-12-13T06:24:35.798Z,1.70
2017-12-13T06:25:35.777Z,1.80
2017-12-13T06:26:35.758Z,1.80
2017-12-13T06:27:35.753Z,1.70
2017-12-13T06:28:35.772Z,1.80
2017-12-13T06:29:35.736Z,1.70
2017-12-13T06:30:35.740Z,1.80
2017-12-13T06:31:35.726Z,1.70
2017-12-13T06:32:35.744Z,1.60
2017-12-13T06:33:35.716Z,1.90
2017-12-13T06:34:35.726Z,1.40
2017-12-13T06:35:35.719Z,1.70
2017-12-13T06:36:35.689Z,1.80
2017-12-13T06:37:35.693Z,1.50
2017-12-13T06:38:35.695Z,1.50
2017-12-13T06:39:35.678Z,1.70
2017-12-13T06:40:35.673Z,1.60
2017-12-13T06:41:35.651Z,1.80
2017-12-13T06:42:35.638Z,1.90
2017-12-13T06:43:35.639Z,1.90
2017-12-13T06:44:35.629Z,2.00
2017-12-13T06:45:35.632Z,1.90
2017-12-13T06:46:35.616Z,1.70
2017-12-13T06:47:35.610Z,1.90
2017-12-13T06:48:35.610Z,1.70
2017-12-13T06:49:35.602Z,1.70
2017-12-13T06:50:35.597Z,1.60
2017-12-13T06:51:35.577Z,2.00
2017-12-13T06:52:35.568Z,1.80
2017-12-13T06:53:35.568Z,1.60
2017-12-13T06:54:35.570Z,1.90
2017-12-13T06:55:35.553Z,1.90
2017-12-13T06:56:35.550Z,1.60
2017-12-13T06:57:35.547Z,1.90
2017-12-13T06:58:35.530Z,1.80
2017-12-13T06:59:35.539Z,2.00
2017-12-13T07:00:35.515Z,1.80
2017-12-13T07:01:35.516Z,1.90
2017-12-13T07:02:35.503Z,2.00
2017-12-13T07:03:35.501Z,1.60
2017-12-13T07:04:35.494Z,2.00
2017-12-13T07:05:35.485Z,2.20
2017-12-13T07:06:35.479Z,2.10
2017-12-13T07:07:35.465Z,2.40
2017-12-13T07:08:35.458Z,2.40
2017-12-13T07:09:35.449Z,2.30
2017-12-13T07:10:35.437Z,2.30
2017-12-13T07:11:35.434Z,2.30
2017-12-13T07:12:35.423Z,2.20
2017-12-13T07:13:35.414Z,2.60
2017-12-13T07:14:35.416Z,2.80
2017-12-13T07:15:35.409Z,2.20
2017-12-13T07:16:35.395Z,2.10
2017-12-13T07:17:35.387Z,2.30
2017-12-13T07:18:35.375Z,2.80
2017-12-13T07:19:35.368Z,2.10
2017-12-13T07:20:35.461Z,2.20
2017-12-13T07:21:35.352Z,2.60
2017-12-13T07:22:35.354Z,2.20
2017-12-13T07:23:35.338Z,2.50
2017-12-13T07:24:35.336Z,2.30
2017-12-13T07:25:35.331Z,2.40
2017-12-13T07:26:35.322Z,2.90
2017-12-13T07:27:35.317Z,2.10
2017-12-13T07:28:35.304Z,2.70
2017-12-13T07:29:35.295Z,3.00
2017-12-13T07:30:35.287Z,2.40
2017-12-13T07:31:35.279Z,3.10
2017-12-13T07:32:35.369Z,2.90
2017-12-13T07:33:35.265Z,3.30
2017-12-13T07:34:35.263Z,3.70
2017-12-13T07:35:35.247Z,3.00
2017-12-13T07:36:35.240Z,3.40
2017-12-13T07:37:35.234Z,3.10
2017-12-13T07:38:35.327Z,3.10
2017-12-13T07:39:35.224Z,3.20
2017-12-13T07:40:35.209Z,3.30
2017-12-13T07:41:35.214Z,3.10
2017-12-13T07:42:35.197Z,2.60
2017-12-13T07:43:35.190Z,3.00
2017-12-13T07:44:35.187Z,3.20
2017-12-13T07:45:35.171Z,3.10
2017-12-13T07:46:35.176Z,3.10
2017-12-13T07:47:35.160Z,3.50
2017-12-13T07:48:35.160Z,3.50
2017-12-13T07:49:35.142Z,3.20
2017-12-13T07:50:35.144Z,3.60
2017-12-13T07:51:35.137Z,3.20
2017-12-13T07:52:35.122Z,3.10
2017-12-13T07:53:35.112Z,3.10
2017-12-13T07:54:35.118Z,3.40
2017-12-13T07:55:35.110Z,3.50
2017-12-13T07:56:35.091Z,3.80
2017-12-13T07:57:35.088Z,4.10
2017-12-13T07:58:35.078Z,3.60
2017-12-13T07:59:35.081Z,3.70
2017-12-13T08:00:35.061Z,3.50
2017-12-13T08:01:35.053Z,3.70
2017-12-13T08:02:35.155Z,3.80
2017-12-13T08:03:35.039Z,3.70
2017-12-13T08:04:35.044Z,4.20
2017-12-13T08:05:35.023Z,4.10
2017-12-13T08:06:35.026Z,4.60
2017-12-13T08:07:34.995Z,4.30
2017-12-13T08:08:35.002Z,4.50
2017-12-13T08:09:34.989Z,3.90
2017-12-13T08:10:34.970Z,3.90
2017-12-13T08:11:34.966Z,4.20
2017-12-13T08:12:34.962Z,4.30
2017-12-13T08:13:34.948Z,4.30
2017-12-13T08:14:34.942Z,4.60
2017-12-13T08:15:34.959Z,4.80
2017-12-13T08:16:34.927Z,5.20
2017-12-13T08:17:34.928Z,4.60
2017-12-13T08:18:34.913Z,4.30
2017-12-13T08:19:34.905Z,4.60
2017-12-13T08:20:34.922Z,4.50
2017-12-13T08:21:34.890Z,4.90
2017-12-13T08:22:34.904Z,5.00
2017-12-13T08:23:34.926Z,4.80
2017-12-13T08:24:34.875Z,4.90
2017-12-13T08:25:34.876Z,4.30
2017-12-13T08:26:34.868Z,4.90
2017-12-13T08:27:34.852Z,4.80
2017-12-13T08:28:34.855Z,4.80
2017-12-13T08:29:34.832Z,5.00
2017-12-13T08:30:34.840Z,4.80
2017-12-13T08:31:34.828Z,5.10
2017-12-13T08:32:34.816Z,5.20
2017-12-13T08:33:34.830Z,5.20
2017-12-13T08:34:34.799Z,5.00
2017-12-13T08:35:34.812Z,4.90
2017-12-13T08:36:34.808Z,5.10
2017-12-13T08:37:34.790Z,5.20
2017-12-13T08:38:34.876Z,5.10
2017-12-13T08:39:34.783Z,4.80
2017-12-13T08:40:34.776Z,5.20
2017-12-13T08:41:34.744Z,4.70
2017-12-13T08:42:34.746Z,5.30
2017-12-13T08:43:34.753Z,5.20
2017-12-13T08:44:34.746Z,5.40
2017-12-13T08:45:34.738Z,5.60
2017-12-13T08:46:34.718Z,5.00
2017-12-13T08:47:34.718Z,5.30
2017-12-13T08:48:34.717Z,5.90
2017-12-13T08:49:34.712Z,5.20
2017-12-13T08:50:34.802Z,4.60
2017-12-13T08:51:34.699Z,5.80
2017-12-13T08:52:34.688Z,5.20
2017-12-13T08:53:34.656Z,5.50
2017-12-13T08:54:34.677Z,5.10
2017-12-13T08:55:34.653Z,5.50
2017-12-13T08:56:34.641Z,5.40
2017-12-13T08:57:34.639Z,5.60
2017-12-13T08:58:34.620Z,6.50
2017-12-13T08:59:34.619Z,6.40
2017-12-13T09:00:34.612Z,6.20
2017-12-13T09:01:34.616Z,5.70
2017-12-13T09:02:34.591Z,6.60
2017-12-13T09:03:34.594Z,5.60
2017-12-13T09:04:34.595Z,5.70
2017-12-13T09:05:34.587Z,6.10
2017-12-13T09:06:34.563Z,6.80
2017-12-13T09:07:34.564Z,6.20
2017-12-13T09:08:34.567Z,6.70
2017-12-13T09:09:34.558Z,6.50
2017-12-13T09:10:34.551Z,6.50
2017-12-13T09:11:34.527Z,6.20
2017-12-13T09:12:34.520Z,6.00
2017-12-13T09:13:34.511Z,6.30
2017-12-13T09:14:34.522Z,6.40
2017-12-13T09:15:34.498Z,6.50
2017-12-13T09:16:34.508Z,6.50
2017-12-13T09:17:34.500Z,6.70
2017-12-13T09:18:34.493Z,6.00
2017-12-13T09:19:34.483Z,6.50
2017-12-13T09:20:34.479Z,7.10
2017-12-13T09:21:34.469Z,5.90
2017-12-13T09:22:34.462Z,5.70
2017-12-13T09:23:34.455Z,6.60
2017-12-13T09:24:34.457Z,6.10
2017-12-13T09:25:34.453Z,6.40
2017-12-13T09:26:34.433Z,6.50
2017-12-13T09:27:34.426Z,5.80
2017-12-13T09:28:34.419Z,6.80
2017-12-13T09:29:34.411Z,6.30
2017-12-13T09:30:34.416Z,6.20
2017-12-13T09:31:34.408Z,6.10
2017-12-13T09:32:34.393Z,6.50
2017-12-13T09:33:34.383Z,7.20
2017-12-13T09:34:34.385Z,6.90
2017-12-13T09:35:34.372Z,6.50
2017-12-13T09:36:34.361Z,6.90
2017-12-13T09:37:34.355Z,6.30
2017-12-13T09:38:34.447Z,6.40
2017-12-13T09:39:34.340Z,6.40
2017-12-13T09:40:34.333Z,5.90
2017-12-13T09:41:34.311Z,6.50
2017-12-13T09:42:34.304Z,6.00
2017-12-13T09:43:34.313Z,5.80
2017-12-13T09:44:34.306Z,5.50
2017-12-13T09:45:34.297Z,5.50
2017-12-13T09:46:34.291Z,6.10
2017-12-13T09:47:34.269Z,6.20
2017-12-13T09:48:34.262Z,5.70
2017-12-13T09:49:34.269Z,6.70
2017-12-13T09:50:34.309Z,6.00
2017-12-13T09:51:34.261Z,6.10
2017-12-13T09:52:34.236Z,6.50
2017-12-13T09:53:34.231Z,5.90
2017-12-13T09:54:34.219Z,6.50
2017-12-13T09:55:34.213Z,7.00
2017-12-13T09:56:34.204Z,6.60
2017-12-13T09:57:34.199Z,6.40
2017-12-13T09:58:34.196Z,6.10
2017-12-13T09:59:34.185Z,6.40
2017-12-13T10:00:34.179Z,6.70
2017-12-13T10:01:34.176Z,6.70
2017-12-13T10:02:34.167Z,6.60
2017-12-13T10:03:34.161Z,6.40
2017-12-13T10:04:34.156Z,6.70
2017-12-13T10:05:34.148Z,7.10
2017-12-13T10:06:34.142Z,6.50
2017-12-13T10:07:34.128Z,7.40
2017-12-13T10:08:34.228Z,7.90
2017-12-13T10:09:34.119Z,7.70
2017-12-13T10:10:34.108Z,7.30
2017-12-13T10:11:34.102Z,7.40
2017-12-13T10:12:34.103Z,7.40
2017-12-13T10:13:34.093Z,8.00
2017-12-13T10:14:34.081Z,8.30
2017-12-13T10:15:34.074Z,8.40
2017-12-13T10:16:34.076Z,7.90
2017-12-13T10:17:34.059Z,7.20
2017-12-13T10:18:34.056Z,8.40
2017-12-13T10:19:34.050Z,8.10
2017-12-13T10:20:34.290Z,8.50
2017-12-13T10:21:34.038Z,8.50
2017-12-13T10:22:34.030Z,9.10
2017-12-13T10:23:34.023Z,9.80
2017-12-13T10:24:34.020Z,10.00
2017-12-13T10:25:34.006Z,9.20
2017-12-13T10:26:33.995Z,9.00
2017-12-13T10:27:33.997Z,9.50
2017-12-13T10:28:33.981Z,9.20
2017-12-13T10:29:33.976Z,8.90
2017-12-13T10:30:33.974Z,8.90
2017-12-13T10:31:33.967Z,8.80
2017-12-13T10:32:33.963Z,8.70
2017-12-13T10:33:33.956Z,8.70
2017-12-13T10:34:33.946Z,9.00
2017-12-13T10:35:33.933Z,9.30
2017-12-13T10:36:33.933Z,8.60
2017-12-13T10:37:33.930Z,8.10
2017-12-13T10:38:33.921Z,9.00
2017-12-13T10:39:33.912Z,9.50
2017-12-13T10:40:33.900Z,9.00
2017-12-13T10:41:33.895Z,9.30
2017-12-13T10:42:33.891Z,9.20
2017-12-13T10:43:33.886Z,8.70
2017-12-13T10:44:33.879Z,9.00
2017-12-13T10:45:33.876Z,8.80
2017-12-13T10:46:33.869Z,9.40
2017-12-13T10:47:33.859Z,10.10
2017-12-13T10:48:33.855Z,10.50
2017-12-13T10:49:33.848Z,9.80
2017-12-13T10:50:33.942Z,9.60
2017-12-13T10:51:33.831Z,9.90
2017-12-13T10:52:33.826Z,10.50
2017-12-13T10:53:33.817Z,9.40
2017-12-13T10:54:33.816Z,9.40
2017-12-13T10:55:33.810Z,10.30
2017-12-13T10:56:33.799Z,10.00
2017-12-13T10:58:33.789Z,9.40
2017-12-13T10:59:33.783Z,9.10
2017-12-13T11:00:33.777Z,10.00
2017-12-13T11:01:33.766Z,9.50
2017-12-13T11:02:33.758Z,10.30
2017-12-13T11:03:33.752Z,10.20
2017-12-13T11:04:33.747Z,10.10
2017-12-13T11:05:33.747Z,10.70
2017-12-13T11:06:33.738Z,11.30
2017-12-13T11:07:33.729Z,10.50
2017-12-13T11:08:33.724Z,10.70
2017-12-13T11:09:33.712Z,10.50
2017-12-13T11:10:33.710Z,9.80
2017-12-13T11:11:33.702Z,11.10
2017-12-13T11:12:33.695Z,11.00
2017-12-13T11:13:33.696Z,10.50
2017-12-13T11:14:33.692Z,10.90
2017-12-13T11:15:33.676Z,12.20
2017-12-13T11:16:33.672Z,12.50
2017-12-13T11:17:33.667Z,12.30
2017-12-13T11:18:33.661Z,12.20
2017-12-13T11:19:33.755Z,12.00
2017-12-13T11:20:33.651Z,11.70
2017-12-13T11:21:33.645Z,11.60
2017-12-13T11:22:33.635Z,11.60
2017-12-13T11:23:33.628Z,11.80
2017-12-13T11:24:33.623Z,12.10
2017-12-13T11:25:33.615Z,12.20
2017-12-13T11:26:33.608Z,12.00
2017-12-13T11:27:33.601Z,12.60
2017-12-13T11:28:33.599Z,12.20
2017-12-13T11:30:33.684Z,13.40
2017-12-13T11:31:33.580Z,13.40
2017-12-13T11:32:33.574Z,13.30
2017-12-13T11:33:33.569Z,13.20
2017-12-13T11:34:33.559Z,14.00
2017-12-13T11:35:33.553Z,13.90
2017-12-13T11:36:33.550Z,13.30
2017-12-13T11:37:33.542Z,13.50
2017-12-13T11:38:33.534Z,13.90
2017-12-13T11:39:33.530Z,14.30
2017-12-13T11:40:33.518Z,14.70
2017-12-13T11:41:33.517Z,14.50
2017-12-13T11:42:33.505Z,12.80
2017-12-13T11:43:33.505Z,14.00
2017-12-13T11:44:33.494Z,14.60
2017-12-13T11:45:33.482Z,14.50
2017-12-13T11:46:33.481Z,14.20
2017-12-13T11:48:33.466Z,13.80
2017-12-13T11:49:33.463Z,13.80
2017-12-13T11:50:33.458Z,14.90
2017-12-13T11:51:33.453Z,17.20
2017-12-13T11:52:33.445Z,18.10
2017-12-13T11:53:33.440Z,19.40
2017-12-13T11:54:33.429Z,18.40
2017-12-13T11:55:33.423Z,19.00
2017-12-13T11:56:33.417Z,18.60
2017-12-13T11:57:33.415Z,19.70
2017-12-13T11:58:33.414Z,19.20
2017-12-13T11:59:33.399Z,20.00
2017-12-13T12:00:33.398Z,20.10
2017-12-13T12:01:33.392Z,19.50
2017-12-13T12:02:33.375Z,16.80
2017-12-13T12:03:33.385Z,14.90
2017-12-13T12:04:33.376Z,14.10
2017-12-13T12:05:33.364Z,14.90
2017-12-13T12:07:33.357Z,14.50
2017-12-13T12:08:33.347Z,13.20
2017-12-13T12:09:33.341Z,13.00
2017-12-13T12:10:33.336Z,12.80
2017-12-13T12:11:33.330Z,12.90
2017-12-13T12:12:33.325Z,13.20
2017-12-13T12:13:33.318Z,12.70
2017-12-13T12:14:33.318Z,12.60
2017-12-13T12:15:33.313Z,13.20
2017-12-13T12:16:33.330Z,12.80
2017-12-13T12:17:33.296Z,13.50
2017-12-13T12:18:33.303Z,12.40
2017-12-13T12:19:33.287Z,12.00
2017-12-13T12:20:33.280Z,12.60
2017-12-13T12:21:33.280Z,11.60
2017-12-13T12:22:33.276Z,12.10
2017-12-13T12:23:33.277Z,12.00
2017-12-13T12:24:33.268Z,12.00
2017-12-13T12:25:33.260Z,13.40
2017-12-13T12:26:33.255Z,13.00
2017-12-13T12:27:33.248Z,12.70
2017-12-13T12:28:33.242Z,11.60
2017-12-13T12:29:33.240Z,12.60
2017-12-13T12:30:33.235Z,12.10
2017-12-13T12:31:33.227Z,11.90
2017-12-13T12:32:33.228Z,12.20
2017-12-13T12:33:33.221Z,12.40
2017-12-13T12:34:33.217Z,12.00
2017-12-13T12:35:33.213Z,12.50
2017-12-13T12:36:33.205Z,12.00
2017-12-13T12:37:33.203Z,12.30
2017-12-13T12:38:33.194Z,12.40
2017-12-13T12:39:33.196Z,12.60
2017-12-13T12:40:33.191Z,12.50
2017-12-13T12:41:33.287Z,12.70
2017-12-13T12:42:33.178Z,13.30
2017-12-13T12:43:33.178Z,12.20
2017-12-13T12:44:33.174Z,12.40
2017-12-13T12:45:33.167Z,14.20
2017-12-13T12:46:33.178Z,13.70
2017-12-13T12:47:33.175Z,12.50
2017-12-13T12:48:33.161Z,12.80
2017-12-13T12:49:33.164Z,12.30
2017-12-13T12:50:33.147Z,13.40
2017-12-13T12:51:33.160Z,12.60
2017-12-13T12:52:33.152Z,11.90
2017-12-13T12:53:33.152Z,11.90
2017-12-13T12:54:33.124Z,11.40
2017-12-13T12:55:33.139Z,12.70
2017-12-13T12:56:33.135Z,13.60
2017-12-13T12:57:33.117Z,13.30
2017-12-13T12:58:33.132Z,13.40
2017-12-13T12:59:33.105Z,12.80
2017-12-13T13:00:33.119Z,14.00
2017-12-13T13:01:33.103Z,11.80
2017-12-13T13:02:33.090Z,11.80
2017-12-13T13:03:33.092Z,10.30
2017-12-13T13:04:33.100Z,10.50
2017-12-13T13:05:33.300Z,10.60
2017-12-13T13:06:33.094Z,10.70
2017-12-13T13:07:33.093Z,10.70
2017-12-13T13:08:33.097Z,10.90
2017-12-13T13:09:33.085Z,13.20
2017-12-13T13:10:33.079Z,14.00
2017-12-13T13:11:33.075Z,11.90
2017-12-13T13:12:33.075Z,10.70
2017-12-13T13:13:33.064Z,10.30
2017-12-13T13:14:33.063Z,11.20
2017-12-13T13:15:33.055Z,11.10